Time;durP1;ratioP1;P1;durP2;ratioP2;P2;SDS_P1;SDS_P2;PMS_P1;PMS_P2;Temp;Humidity;BMP_temperature;BMP_pressure;BME280_temperature;BME280_humidity;BME280_pressure;Samples;Min_cycle;Max_cycle;Signal;HPM_P1;HPM_P2
2022/08/21 00:01:26;;;;;;;7.87;3.60;;;;;;;20.80;50.18;97573.97;5039890;28;20187;-71
2022/08/21 00:03:52;;;;;;;4.53;2.60;;;;;;;20.81;50.34;97567.63;5031687;28;20204;-71
2022/08/21 00:06:18;;;;;;;5.03;3.20;;;;;;;20.90;49.68;97565.56;5032369;28;20476;-70
2022/08/21 00:08:43;;;;;;;3.00;2.70;;;;;;;20.93;49.75;97565.16;5032315;28;20195;-71
2022/08/21 00:11:09;;;;;;;5.80;3.23;;;;;;;20.85;50.20;97563.53;5037937;28;20434;-71
2022/08/21 00:13:35;;;;;;;4.43;3.20;;;;;;;20.84;50.43;97567.22;5033436;28;20204;-70
2022/08/21 00:16:01;;;;;;;5.30;2.70;;;;;;;20.84;50.24;97562.72;5031370;28;20191;-70
2022/08/21 00:18:27;;;;;;;5.30;3.07;;;;;;;20.82;50.32;97563.94;5030608;28;20635;-70
2022/08/21 00:20:52;;;;;;;6.87;3.10;;;;;;;20.85;49.91;97560.88;5038986;28;20465;-71
2022/08/21 00:23:18;;;;;;;3.70;2.73;;;;;;;20.82;50.27;97555.94;5033733;28;20260;-70
2022/08/21 00:25:44;;;;;;;4.70;2.60;;;;;;;20.85;50.30;97558.19;5028131;28;20192;-71
2022/08/21 00:28:10;;;;;;;4.50;2.47;;;;;;;20.85;50.14;97558.19;5028809;28;20179;-72
2022/08/21 00:30:36;;;;;;;2.67;2.33;;;;;;;20.82;50.29;97553.28;5031043;28;20505;-72
2022/08/21 00:33:02;;;;;;;6.43;2.30;;;;;;;20.76;50.33;97548.81;5032409;28;20438;-70
2022/08/21 00:35:31;;;;;;;2.50;2.10;;;;;;;20.65;50.60;97551.06;5030917;28;21091;-70
2022/08/21 00:37:57;;;;;;;6.27;2.73;;;;;;;20.60;51.23;97555.38;5031212;28;20203;-70
2022/08/21 00:40:28;;;;;;;3.43;2.53;;;;;;;20.58;51.36;97552.91;5032097;28;20462;-71
2022/08/21 00:42:53;;;;;;;3.53;2.07;;;;;;;20.57;51.33;97553.94;5033531;28;20204;-71
2022/08/21 00:45:19;;;;;;;3.40;2.40;;;;;;;20.53;50.89;97561.53;5039008;28;20431;-70
2022/08/21 00:47:45;;;;;;;3.40;2.33;;;;;;;20.47;51.00;97558.88;5045649;28;20706;-70
2022/08/21 00:50:11;;;;;;;5.23;2.70;;;;;;;20.44;51.13;97556.63;5032031;28;20429;-71
2022/08/21 00:52:37;;;;;;;4.83;2.70;;;;;;;20.43;51.63;97555.81;5032069;28;20267;-70
2022/08/21 00:55:06;;;;;;;5.00;2.60;;;;;;;20.42;51.18;97552.31;5031784;28;20427;-70
2022/08/21 00:57:39;;;;;;;4.00;2.20;;;;;;;20.39;51.30;97557.25;5037259;28;20442;-71
2022/08/21 01:00:09;;;;;;;3.83;2.40;;;;;;;20.34;51.42;97549.88;5030590;28;20454;-71
2022/08/21 01:02:35;;;;;;;5.90;2.77;;;;;;;20.37;51.49;97551.31;5031747;28;20422;-71
2022/08/21 01:05:00;;;;;;;4.30;2.30;;;;;;;20.33;51.19;97552.75;5030698;28;20441;-71
2022/08/21 01:07:26;;;;;;;3.30;2.80;;;;;;;20.35;51.35;97543.53;5038941;28;20858;-70
2022/08/21 01:09:51;;;;;;;4.90;2.43;;;;;;;20.34;51.22;97547.22;5031194;28;20195;-70
2022/08/21 01:12:17;;;;;;;4.00;2.20;;;;;;;20.30;51.11;97551.31;5030323;28;20222;-70
2022/08/21 01:14:44;;;;;;;5.00;2.57;;;;;;;20.26;51.06;97544.78;5036858;28;20207;-71
2022/08/21 01:17:11;;;;;;;3.07;2.13;;;;;;;20.17;51.48;97540.69;5032908;28;20703;-71
2022/08/21 01:19:37;;;;;;;4.30;2.40;;;;;;;20.13;51.88;97550.13;5037436;28;21009;-70
2022/08/21 01:22:02;;;;;;;4.50;2.53;;;;;;;20.13;51.86;97544.78;5046417;28;20517;-70
2022/08/21 01:24:28;;;;;;;5.93;2.47;;;;;;;20.13;51.98;97547.47;5031398;28;20199;-71
2022/08/21 01:26:54;;;;;;;3.97;2.53;;;;;;;20.14;51.41;97544.56;5030185;28;20187;-71
2022/08/21 01:29:34;;;;;;;3.90;2.40;;;;;;;20.03;51.69;97540.72;5031937;28;20187;-70
2022/08/21 01:32:04;;;;;;;5.53;2.83;;;;;;;20.07;51.35;97549.91;5033963;28;20187;-71
2022/08/21 01:34:29;;;;;;;6.83;2.90;;;;;;;19.93;51.88;97550.91;5023203;28;20430;-70
2022/08/21 01:36:55;;;;;;;6.30;2.80;;;;;;;19.91;52.32;97542.34;5030292;28;20483;-71
2022/08/21 01:39:20;;;;;;;3.53;2.60;;;;;;;19.89;52.35;97539.06;5029736;28;20249;-71
2022/08/21 01:41:47;;;;;;;4.83;2.87;;;;;;;19.85;52.45;97540.47;5030031;28;20258;-71
2022/08/21 01:44:12;;;;;;;3.90;2.50;;;;;;;19.84;52.57;97537.00;5021342;28;20442;-71
2022/08/21 01:46:38;;;;;;;3.67;2.53;;;;;;;19.83;52.58;97535.34;5036823;28;20269;-70
2022/08/21 01:49:05;;;;;;;2.97;2.20;;;;;;;19.72;52.72;97534.09;5029819;28;20207;-72
2022/08/21 01:51:30;;;;;;;3.43;2.67;;;;;;;19.73;52.79;97533.09;5029908;28;20208;-71
2022/08/21 01:53:56;;;;;;;3.40;2.40;;;;;;;19.72;53.07;97534.09;5031023;28;20834;-70
2022/08/21 01:56:21;;;;;;;5.07;2.57;;;;;;;19.71;52.78;97540.44;5029734;28;20187;-72
2022/08/21 01:58:47;;;;;;;3.77;2.27;;;;;;;19.70;53.32;97541.47;5030803;28;20183;-71
2022/08/21 02:01:13;;;;;;;4.40;2.73;;;;;;;19.73;53.08;97524.28;5030901;28;20187;-71
2022/08/21 02:03:39;;;;;;;4.70;2.70;;;;;;;19.66;53.30;97526.94;5032677;28;20203;-71
2022/08/21 02:06:06;;;;;;;3.47;2.53;;;;;;;19.63;53.32;97524.69;5032870;28;20526;-71
2022/08/21 02:08:32;;;;;;;7.23;2.90;;;;;;;19.59;53.37;97520.78;5030338;28;20180;-70
2022/08/21 02:10:58;;;;;;;3.23;2.67;;;;;;;19.61;53.24;97516.09;5031014;28;20415;-69
2022/08/21 02:13:23;;;;;;;3.90;2.83;;;;;;;19.54;53.51;97516.09;5030583;28;21903;-70
2022/08/21 02:15:49;;;;;;;4.70;3.33;;;;;;;19.51;53.62;97516.47;5030747;28;20202;-71
2022/08/21 02:18:14;;;;;;;3.67;2.30;;;;;;;19.48;53.63;97514.22;5038249;28;20279;-69
2022/08/21 02:20:44;;;;;;;9.40;2.50;;;;;;;19.38;53.92;97517.28;5037748;28;20214;-70
2022/08/21 02:23:10;;;;;;;3.70;2.67;;;;;;;19.36;53.99;97514.00;5037104;28;20685;-70
2022/08/21 02:25:36;;;;;;;4.00;2.40;;;;;;;19.34;53.85;97510.75;5033140;28;20434;-70
2022/08/21 02:28:04;;;;;;;5.63;2.60;;;;;;;19.25;54.00;97512.75;5032672;28;20443;-70
2022/08/21 02:30:34;;;;;;;2.93;2.50;;;;;;;19.30;53.83;97515.63;5026779;28;20426;-69
2022/08/21 02:32:59;;;;;;;4.00;2.63;;;;;;;19.15;53.97;97515.78;5033002;28;20988;-70
2022/08/21 02:35:25;;;;;;;4.57;2.20;;;;;;;19.18;54.29;97518.03;5034354;28;20465;-70
2022/08/21 02:37:56;;;;;;;2.90;1.97;;;;;;;19.22;54.41;97510.50;5024887;28;20200;-69
2022/08/21 02:40:26;;;;;;;3.87;2.37;;;;;;;19.17;54.39;97508.44;5033132;28;20211;-70
2022/08/21 02:42:52;;;;;;;4.20;2.57;;;;;;;19.13;54.54;97501.91;5034159;28;20454;-70
2022/08/21 02:45:18;;;;;;;4.63;2.30;;;;;;;19.14;54.43;97510.69;5034565;28;20484;-70
2022/08/21 02:47:51;;;;;;;4.00;2.60;;;;;;;19.14;54.39;97502.72;5031673;28;20293;-69
2022/08/21 02:50:23;;;;;;;2.70;2.40;;;;;;;19.15;54.34;97507.81;5033655;28;20890;-71
2022/08/21 02:52:49;;;;;;;3.60;2.50;;;;;;;19.09;54.52;97508.63;5034077;28;20495;-70
2022/08/21 02:55:14;;;;;;;4.10;2.87;;;;;;;19.12;54.53;97504.75;5032094;28;21000;-70
2022/08/21 02:57:40;;;;;;;3.00;2.70;;;;;;;19.09;54.54;97510.47;5033405;28;20550;-70
2022/08/21 03:00:07;;;;;;;4.47;2.07;;;;;;;19.00;54.72;97515.13;5042188;28;20679;-71
2022/08/21 03:02:34;;;;;;;7.13;2.67;;;;;;;18.89;54.87;97513.84;5033942;28;20188;-70
2022/08/21 03:05:00;;;;;;;4.23;2.60;;;;;;;18.92;54.81;97513.44;5027387;28;20521;-70
2022/08/21 03:07:26;;;;;;;5.70;2.90;;;;;;;18.96;54.67;97512.06;5009649;28;20977;-72
2022/08/21 03:09:51;;;;;;;3.93;2.47;;;;;;;18.91;54.77;97509.16;5032338;28;20222;-70
2022/08/21 03:12:17;;;;;;;6.83;2.47;;;;;;;18.83;55.04;97514.63;5024679;28;20455;-69
2022/08/21 03:14:42;;;;;;;4.93;2.80;;;;;;;18.81;55.01;97506.03;5033500;28;20210;-70
2022/08/21 03:17:08;;;;;;;4.40;2.80;;;;;;;18.77;55.25;97516.25;5032406;28;20197;-69
2022/08/21 03:19:33;;;;;;;10.00;2.80;;;;;;;18.73;55.33;97515.00;5033389;28;20212;-71
2022/08/21 03:21:59;;;;;;;5.73;2.80;;;;;;;18.74;55.31;97513.97;5042164;28;20183;-71
2022/08/21 03:24:24;;;;;;;3.87;2.60;;;;;;;18.67;55.22;97515.75;5044234;28;20343;-70
2022/08/21 03:26:50;;;;;;;3.77;2.80;;;;;;;18.72;55.40;97522.13;5037140;28;20180;-71
2022/08/21 03:29:15;;;;;;;3.10;2.70;;;;;;;18.72;55.26;97527.44;5034012;28;20180;-71
2022/08/21 03:31:41;;;;;;;7.20;3.07;;;;;;;18.73;55.35;97518.44;5031333;28;20197;-71
2022/08/21 03:34:06;;;;;;;5.20;2.60;;;;;;;18.73;55.35;97521.09;5043770;28;20703;-71
2022/08/21 03:36:32;;;;;;;5.37;2.80;;;;;;;18.75;55.30;97520.94;5041763;28;20207;-71
2022/08/21 03:38:57;;;;;;;3.50;2.60;;;;;;;18.68;55.69;97528.03;5027897;28;20674;-71
2022/08/21 03:41:23;;;;;;;6.47;2.80;;;;;;;18.69;55.73;97525.19;5029533;28;20183;-71
2022/08/21 03:43:48;;;;;;;3.30;2.20;;;;;;;18.70;55.62;97532.16;5038899;28;20290;-71
2022/08/21 03:46:14;;;;;;;2.73;2.50;;;;;;;18.68;55.68;97528.03;5039330;28;20662;-70
2022/08/21 03:48:39;;;;;;;4.70;2.67;;;;;;;18.65;55.63;97525.78;5028848;28;20180;-70
2022/08/21 03:51:06;;;;;;;6.13;2.80;;;;;;;18.69;55.50;97529.66;5041087;28;20203;-70
2022/08/21 03:53:32;;;;;;;7.53;3.07;;;;;;;18.72;55.44;97526.63;5032890;28;20658;-70
2022/08/21 03:55:58;;;;;;;3.57;2.80;;;;;;;18.63;55.59;97541.88;5036990;28;20434;-72
2022/08/21 03:58:25;;;;;;;6.83;2.43;;;;;;;18.58;55.53;97533.72;5037825;28;20427;-71
2022/08/21 04:00:55;;;;;;;4.63;2.90;;;;;;;18.58;55.67;97529.22;5044902;28;20226;-71
2022/08/21 04:03:21;;;;;;;4.90;3.00;;;;;;;18.56;55.74;97531.22;5030777;28;20828;-71
2022/08/21 04:05:46;;;;;;;5.20;2.77;;;;;;;18.46;56.05;97538.72;5038193;28;20422;-70
2022/08/21 04:08:13;;;;;;;4.00;2.90;;;;;;;18.47;55.90;97542.19;5027602;28;20192;-70
2022/08/21 04:10:39;;;;;;;5.73;2.73;;;;;;;18.44;55.97;97542.59;5038144;28;20254;-71
2022/08/21 04:13:05;;;;;;;6.20;2.80;;;;;;;18.43;56.06;97539.09;5032136;28;20900;-70
2022/08/21 04:15:31;;;;;;;7.73;2.97;;;;;;;18.42;56.13;97545.44;5026291;28;20578;-69
2022/08/21 04:17:56;;;;;;;5.83;3.20;;;;;;;18.43;56.11;97541.75;5037130;28;20547;-72
2022/08/21 04:20:22;;;;;;;4.30;3.00;;;;;;;18.34;56.53;97541.09;5042567;28;20243;-70
2022/08/21 04:22:50;;;;;;;4.50;2.70;;;;;;;18.35;56.30;97548.03;5036725;28;20215;-70
2022/08/21 04:25:17;;;;;;;3.80;2.80;;;;;;;18.37;56.14;97553.16;5039983;28;20437;-70
2022/08/21 04:27:43;;;;;;;5.43;3.20;;;;;;;18.25;56.47;97553.72;5028260;28;20631;-70
2022/08/21 04:30:09;;;;;;;5.17;3.00;;;;;;;18.26;56.45;97558.00;5040197;28;20429;-69
2022/08/21 04:32:37;;;;;;;4.20;3.00;;;;;;;18.34;56.05;97553.56;5032247;28;20187;-70
2022/08/21 04:35:08;;;;;;;2.70;2.50;;;;;;;18.17;55.91;97559.13;5026397;28;20450;-69
2022/08/21 04:37:33;;;;;;;3.37;3.00;;;;;;;18.26;56.04;97560.66;5024145;28;20446;-72
2022/08/21 04:39:59;;;;;;;5.53;2.90;;;;;;;18.20;55.75;97566.72;5031739;28;20548;-70
2022/08/21 04:42:26;;;;;;;8.00;2.97;;;;;;;18.25;55.99;97577.56;5031600;28;20223;-70
2022/08/21 04:44:51;;;;;;;7.13;2.80;;;;;;;18.29;55.83;97570.06;5028483;28;20290;-71
2022/08/21 04:47:17;;;;;;;3.13;2.50;;;;;;;18.28;55.90;97576.38;5013147;28;20870;-70
2022/08/21 04:49:43;;;;;;;5.40;3.07;;;;;;;18.32;55.93;97574.13;5030422;28;20705;-70
2022/08/21 04:52:09;;;;;;;4.93;3.13;;;;;;;18.32;56.09;97571.50;5026425;28;20198;-71
2022/08/21 04:54:35;;;;;;;6.73;3.10;;;;;;;18.30;56.22;97570.84;5028533;28;20449;-71
2022/08/21 04:57:06;;;;;;;3.50;2.70;;;;;;;18.32;56.25;97571.50;5033552;28;20437;-70
2022/08/21 04:59:43;;;;;;;6.47;2.87;;;;;;;18.31;56.29;97570.69;5030248;28;20579;-70
2022/08/21 05:02:09;;;;;;;3.97;2.57;;;;;;;18.33;56.25;97571.31;5025509;28;20934;-70
2022/08/21 05:04:39;;;;;;;5.00;3.13;;;;;;;18.31;56.37;97570.69;5037186;28;20456;-71
2022/08/21 05:07:06;;;;;;;4.63;2.87;;;;;;;18.34;56.61;97575.59;5022886;28;20730;-70
2022/08/21 05:09:33;;;;;;;4.50;3.10;;;;;;;18.37;57.05;97569.91;5031336;28;20415;-71
2022/08/21 05:11:58;;;;;;;3.17;2.40;;;;;;;18.40;57.05;97574.00;5030213;28;20949;-71
2022/08/21 05:14:26;;;;;;;4.60;3.00;;;;;;;18.46;57.09;97575.88;5029896;28;20455;-72
2022/08/21 05:16:51;;;;;;;6.20;2.77;;;;;;;18.49;57.04;97578.16;5029492;28;20188;-70
2022/08/21 05:19:17;;;;;;;3.37;2.80;;;;;;;18.46;57.04;97578.53;5031006;28;20511;-71
2022/08/21 05:21:44;;;;;;;5.77;3.00;;;;;;;18.49;57.25;97577.31;5036196;28;20191;-71
2022/08/21 05:24:10;;;;;;;5.43;4.00;;;;;;;18.51;57.21;97581.44;5029979;28;20235;-70
2022/08/21 05:26:36;;;;;;;6.00;3.50;;;;;;;18.50;56.95;97585.09;5029354;28;20434;-70
2022/08/21 05:29:02;;;;;;;3.60;2.90;;;;;;;18.53;57.15;97590.00;5030883;28;20423;-70
2022/08/21 05:31:28;;;;;;;5.47;3.30;;;;;;;18.46;57.13;97586.50;5031138;28;20274;-71
2022/08/21 05:33:54;;;;;;;4.30;3.10;;;;;;;18.54;57.05;97586.34;5030233;28;20861;-70
2022/08/21 05:36:19;;;;;;;9.43;3.37;;;;;;;18.64;56.95;97585.19;5030200;28;20210;-70
2022/08/21 05:38:45;;;;;;;5.40;3.10;;;;;;;18.73;57.07;97587.47;5036568;28;20194;-70
2022/08/21 05:41:10;;;;;;;5.43;2.90;;;;;;;18.81;57.11;97586.50;5032972;28;20690;-70
2022/08/21 05:43:36;;;;;;;4.80;3.03;;;;;;;18.87;57.00;97596.34;5038354;28;20686;-71
2022/08/21 05:46:06;;;;;;;5.70;3.10;;;;;;;18.92;56.36;97592.28;5037480;28;20202;-70
2022/08/21 05:48:32;;;;;;;4.03;3.17;;;;;;;18.97;55.99;97597.84;5022751;28;20192;-70
2022/08/21 05:50:58;;;;;;;5.27;3.00;;;;;;;19.07;55.96;97595.66;5030934;28;20418;-70
2022/08/21 05:53:24;;;;;;;8.73;3.50;;;;;;;19.17;56.13;97595.28;5030503;28;20458;-70
2022/08/21 05:55:51;;;;;;;10.07;2.83;;;;;;;19.26;56.19;97595.94;5038032;28;20943;-70
2022/08/21 05:58:18;;;;;;;5.50;3.00;;;;;;;19.37;56.05;97589.22;5035966;28;20426;-70
2022/08/21 06:00:47;;;;;;;6.27;3.10;;;;;;;19.43;55.60;97588.44;5033841;28;20465;-70
2022/08/21 06:03:16;;;;;;;5.40;3.00;;;;;;;19.55;55.43;97586.00;5034959;28;20446;-70
2022/08/21 06:05:42;;;;;;;4.33;3.03;;;;;;;19.69;55.38;97590.34;5034810;28;20422;-70
2022/08/21 06:08:07;;;;;;;7.07;3.50;;;;;;;19.86;55.09;97581.97;5033835;28;20426;-71
2022/08/21 06:10:33;;;;;;;4.23;2.97;;;;;;;20.05;55.05;97596.34;5034984;28;20670;-71
2022/08/21 06:12:58;;;;;;;11.03;2.90;;;;;;;20.24;54.40;97592.06;5034964;28;20294;-70
2022/08/21 06:15:24;;;;;;;4.37;3.40;;;;;;;20.42;54.39;97596.75;5034668;28;20200;-70
2022/08/21 06:17:49;;;;;;;2.70;2.50;;;;;;;20.56;53.34;97584.25;5034243;28;20192;-71
2022/08/21 06:20:15;;;;;;;8.10;3.00;;;;;;;20.72;53.04;97586.47;5034473;28;20258;-70
2022/08/21 06:22:40;;;;;;;5.43;3.13;;;;;;;20.89;52.67;97591.41;5019846;28;20198;-70
2022/08/21 06:25:06;;;;;;;5.40;3.10;;;;;;;21.10;52.26;97592.13;5034505;28;20271;-71
2022/08/21 06:27:31;;;;;;;4.27;2.77;;;;;;;21.32;52.09;97588.16;5033999;28;20191;-70
2022/08/21 06:29:57;;;;;;;3.77;2.60;;;;;;;21.52;51.80;97589.06;5034699;28;20205;-71
2022/08/21 06:32:23;;;;;;;5.90;2.80;;;;;;;21.73;51.60;97590.63;5034444;28;20607;-72
2022/08/21 06:34:48;;;;;;;6.17;3.40;;;;;;;21.92;51.12;97589.69;5033327;28;20299;-70
2022/08/21 06:37:14;;;;;;;4.47;2.97;;;;;;;22.11;50.26;97587.09;5032991;28;20898;-71
2022/08/21 06:39:39;;;;;;;7.50;2.90;;;;;;;22.28;49.46;97581.22;5034418;28;20222;-72
2022/08/21 06:42:05;;;;;;;4.47;2.50;;;;;;;22.44;49.19;97575.31;5034157;28;20192;-70
2022/08/21 06:44:30;;;;;;;6.70;2.93;;;;;;;22.65;48.90;97578.63;5034862;28;20204;-70
2022/08/21 06:46:56;;;;;;;4.50;2.30;;;;;;;22.84;48.17;97579.47;5038016;28;20658;-71
2022/08/21 06:49:22;;;;;;;4.00;3.10;;;;;;;23.02;47.95;97581.31;5032978;28;20183;-71
2022/08/21 06:51:47;;;;;;;6.57;3.40;;;;;;;23.20;47.53;97572.50;5032157;28;20445;-71
2022/08/21 06:54:12;;;;;;;5.40;2.97;;;;;;;23.38;46.39;97571.66;5031793;28;20211;-70
2022/08/21 06:56:38;;;;;;;6.90;3.17;;;;;;;23.53;45.50;97571.22;5033413;28;20257;-70
2022/08/21 06:59:05;;;;;;;7.20;2.93;;;;;;;23.67;44.86;97565.69;5034103;28;20184;-71
2022/08/21 07:01:30;;;;;;;7.27;3.00;;;;;;;23.86;44.95;97571.78;5028057;28;20221;-70
2022/08/21 07:03:56;;;;;;;5.50;2.90;;;;;;;24.03;43.96;97570.13;5034297;28;20454;-71
2022/08/21 07:06:21;;;;;;;5.70;3.27;;;;;;;24.19;43.06;97567.81;5042637;28;20183;-70
2022/08/21 07:08:47;;;;;;;4.80;3.13;;;;;;;24.33;42.58;97569.22;5045485;28;20776;-71
2022/08/21 07:11:18;;;;;;;10.57;3.00;;;;;;;24.48;42.17;97566.09;5036215;28;20188;-70
2022/08/21 07:13:44;;;;;;;5.97;2.80;;;;;;;24.66;42.51;97561.63;5034262;28;20706;-70
2022/08/21 07:16:09;;;;;;;7.23;3.30;;;;;;;24.81;42.36;97562.00;5033503;28;20426;-71
2022/08/21 07:18:35;;;;;;;6.13;3.20;;;;;;;24.97;41.57;97567.69;5033631;28;20183;-70
2022/08/21 07:21:03;;;;;;;7.20;3.00;;;;;;;25.05;40.25;97561.94;5042514;28;20678;-70
2022/08/21 07:23:32;;;;;;;6.50;3.30;;;;;;;25.15;40.57;97564.00;5041552;28;20211;-70
2022/08/21 07:25:59;;;;;;;7.23;2.80;;;;;;;25.30;40.82;97567.00;5033791;28;21012;-71
2022/08/21 07:28:24;;;;;;;6.63;4.00;;;;;;;25.45;40.18;97563.00;5032740;28;20431;-70
2022/08/21 07:30:51;;;;;;;6.57;3.23;;;;;;;25.59;40.33;97566.22;5033070;28;20513;-70
2022/08/21 07:33:17;;;;;;;7.60;3.00;;;;;;;25.72;39.78;97565.06;5032235;28;20662;-70
2022/08/21 07:35:42;;;;;;;5.07;2.83;;;;;;;25.79;39.23;97563.06;5041308;28;20517;-70
2022/08/21 07:38:08;;;;;;;5.47;3.27;;;;;;;25.91;39.26;97557.63;5040616;28;20188;-70
2022/08/21 07:40:34;;;;;;;6.90;3.00;;;;;;;26.10;39.19;97555.53;5033336;28;20353;-70
2022/08/21 07:42:59;;;;;;;6.77;3.13;;;;;;;26.29;39.01;97555.28;5033157;28;20686;-70
2022/08/21 07:45:25;;;;;;;4.70;3.13;;;;;;;26.40;38.28;97551.69;5039681;28;20191;-71
2022/08/21 07:47:51;;;;;;;4.47;3.00;;;;;;;26.57;38.13;97550.88;5031175;28;20200;-70
2022/08/21 07:50:18;;;;;;;7.23;2.80;;;;;;;26.65;38.04;97548.53;5032897;28;20942;-70
2022/08/21 07:52:43;;;;;;;9.87;3.70;;;;;;;26.79;37.71;97551.72;5032700;28;20195;-71
2022/08/21 07:55:15;;;;;;;5.30;2.70;;;;;;;27.01;37.74;97544.72;5040177;28;20433;-70
2022/08/21 07:57:41;;;;;;;9.60;3.40;;;;;;;27.21;37.38;97554.91;5031010;28;20188;-70
2022/08/21 08:00:10;;;;;;;6.77;2.90;;;;;;;27.33;36.31;97547.50;5032738;28;20806;-70
2022/08/21 08:02:35;;;;;;;7.13;3.17;;;;;;;27.37;35.69;97542.44;5032792;28;20191;-70
2022/08/21 08:05:03;;;;;;;10.00;3.70;;;;;;;27.40;35.63;97540.03;5032896;28;20423;-70
2022/08/21 08:07:29;;;;;;;5.90;3.07;;;;;;;27.58;35.67;97546.19;5023799;28;20187;-70
2022/08/21 08:09:54;;;;;;;5.13;2.90;;;;;;;27.59;35.32;97542.44;5032747;28;20431;-71
2022/08/21 08:12:20;;;;;;;9.17;3.70;;;;;;;27.80;35.21;97539.91;5032455;28;20199;-70
2022/08/21 08:14:46;;;;;;;5.57;3.00;;;;;;;27.92;34.57;97543.25;5032681;28;20207;-70
2022/08/21 08:17:13;;;;;;;7.03;3.00;;;;;;;28.13;34.79;97538.03;5031707;28;20214;-70
2022/08/21 08:19:38;;;;;;;5.50;3.10;;;;;;;28.38;34.75;97539.28;5032276;28;20272;-70
2022/08/21 08:22:16;;;;;;;7.73;2.93;;;;;;;28.59;34.06;97527.56;5032073;28;20441;-72
2022/08/21 08:24:42;;;;;;;7.07;2.87;;;;;;;28.66;32.76;97536.22;5031164;28;20215;-70
2022/08/21 08:27:07;;;;;;;3.77;2.83;;;;;;;28.75;33.07;97533.03;5031459;28;20422;-71
2022/08/21 08:29:33;;;;;;;9.60;3.00;;;;;;;28.93;33.08;97531.75;5031388;28;20263;-70
2022/08/21 08:31:59;;;;;;;4.67;3.00;;;;;;;28.96;31.45;97529.38;5032157;28;20191;-70
2022/08/21 08:34:24;;;;;;;10.40;3.30;;;;;;;29.17;31.77;97526.72;5031921;28;20212;-70
2022/08/21 08:36:50;;;;;;;4.70;2.97;;;;;;;29.37;31.84;97517.91;5031343;28;20195;-69
2022/08/21 08:39:15;;;;;;;4.30;2.80;;;;;;;29.48;30.91;97521.44;5031762;28;20192;-70
2022/08/21 08:41:43;;;;;;;7.83;3.17;;;;;;;29.52;31.11;97508.22;5031980;28;20195;-70
2022/08/21 08:44:08;;;;;;;6.57;3.40;;;;;;;29.73;30.97;97520.63;5029483;28;20241;-71
2022/08/21 08:46:44;;;;;;;6.07;3.03;;;;;;;29.91;30.56;97509.56;5032030;28;20765;-70
2022/08/21 08:49:35;;;;;;;9.00;3.57;;;;;;;29.88;29.40;97509.00;5031891;28;20202;-70
2022/08/21 08:52:04;;;;;;;7.70;3.30;;;;;;;29.56;29.90;97515.50;5038697;28;20430;-69
2022/08/21 08:54:33;;;;;;;5.53;3.17;;;;;;;29.77;30.23;97509.31;5023381;28;20902;-71
2022/08/21 08:57:01;;;;;;;5.73;2.80;;;;;;;30.12;30.00;97499.56;5037095;28;20973;-71
2022/08/21 08:59:36;;;;;;;5.13;3.47;;;;;;;30.37;30.01;97501.41;5030812;28;20458;-71
2022/08/21 09:02:02;;;;;;;4.60;2.80;;;;;;;30.66;29.50;97498.09;5014194;28;20442;-70
2022/08/21 09:04:28;;;;;;;7.20;3.10;;;;;;;30.82;28.77;97496.13;5039716;28;20804;-72
2022/08/21 09:07:03;;;;;;;5.50;2.90;;;;;;;30.93;28.20;97496.91;5031018;28;20191;-71
2022/08/21 09:09:52;;;;;;;10.30;3.60;;;;;;;30.88;27.88;97494.22;5030268;28;20426;-71
2022/08/21 09:12:43;;;;;;;10.23;3.70;;;;;;;31.08;27.64;97488.72;5030864;28;21024;-71
2022/08/21 09:15:27;;;;;;;6.00;2.93;;;;;;;31.29;28.31;97499.44;5030172;28;20518;-71
2022/08/21 09:18:17;;;;;;;4.97;3.17;;;;;;;31.51;27.87;97492.78;5030663;28;20525;-71
2022/08/21 09:21:00;;;;;;;9.07;3.37;;;;;;;31.58;27.51;97490.59;5030596;28;20465;-71
2022/08/21 09:23:57;;;;;;;5.40;2.80;;;;;;;31.75;27.39;97484.78;5030954;28;20446;-70
2022/08/21 09:26:28;;;;;;;4.83;3.20;;;;;;;31.73;26.65;97486.16;5012023;28;20438;-70
2022/08/21 09:28:57;;;;;;;7.87;3.20;;;;;;;31.88;26.84;97471.69;5030077;28;20572;-70
2022/08/21 09:31:30;;;;;;;3.80;2.77;;;;;;;32.09;26.50;97477.72;5030987;28;20426;-70
2022/08/21 09:34:04;;;;;;;6.60;3.13;;;;;;;32.26;27.05;97477.28;5038216;28;20798;-71
2022/08/21 09:36:41;;;;;;;10.47;5.40;;;;;;;32.43;26.30;97474.94;5030558;28;20804;-70
2022/08/21 09:39:07;;;;;;;10.30;3.20;;;;;;;32.43;25.61;97479.53;5029748;28;20936;-70
2022/08/21 09:41:37;;;;;;;4.47;2.70;;;;;;;32.55;25.46;97469.09;5031074;28;20415;-70
2022/08/21 09:44:05;;;;;;;9.07;2.87;;;;;;;32.67;25.03;97465.16;5013712;28;20454;-70
2022/08/21 09:46:30;;;;;;;8.70;2.90;;;;;;;32.65;25.37;97470.06;5035607;28;20801;-71
2022/08/21 09:48:58;;;;;;;7.33;3.03;;;;;;;32.73;25.51;97472.16;5036936;28;20463;-70
2022/08/21 09:51:27;;;;;;;5.30;2.87;;;;;;;32.89;25.63;97468.16;5031794;28;20192;-70
2022/08/21 09:54:14;;;;;;;7.80;2.97;;;;;;;32.95;24.78;97463.47;5030924;28;20450;-71
2022/08/21 09:59:39;;;;;;;5.80;2.80;;;;;;;32.89;25.17;97467.34;5030003;28;20466;-71
2022/08/21 10:02:34;;;;;;;4.43;3.00;;;;;;;33.03;25.44;97460.09;5029679;28;20434;-71
2022/08/21 10:05:03;;;;;;;4.50;2.40;;;;;;;33.27;25.02;97463.84;5026218;28;20435;-71
2022/08/21 10:07:31;;;;;;;5.67;2.83;;;;;;;33.45;24.34;97459.53;5029942;28;20430;-71
2022/08/21 10:10:05;;;;;;;5.90;3.53;;;;;;;33.54;24.67;97455.81;5030793;28;20435;-70
2022/08/21 10:12:59;;;;;;;9.60;3.30;;;;;;;33.46;24.11;97453.00;5021728;28;20480;-71
2022/08/21 10:15:46;;;;;;;6.20;3.17;;;;;;;33.35;24.04;97452.34;5030893;28;20419;-71
2022/08/21 10:18:20;;;;;;;6.73;3.13;;;;;;;33.57;24.86;97453.63;5029772;28;20433;-71
2022/08/21 10:21:03;;;;;;;12.00;3.17;;;;;;;33.56;24.51;97452.00;5035040;28;20461;-71
2022/08/21 10:23:40;;;;;;;7.43;3.03;;;;;;;33.73;24.54;97446.81;5030362;28;20457;-71
2022/08/21 10:26:37;;;;;;;5.17;2.77;;;;;;;34.03;24.49;97441.16;5030600;28;20429;-71
2022/08/21 10:29:09;;;;;;;8.03;2.77;;;;;;;34.21;23.93;97447.63;5030479;28;21000;-70
2022/08/21 10:31:38;;;;;;;5.20;2.90;;;;;;;33.63;24.65;97452.44;5022333;28;20442;-71
2022/08/21 10:34:18;;;;;;;6.80;2.70;;;;;;;32.94;25.77;97445.59;5038701;28;20451;-70
2022/08/21 10:37:10;;;;;;;10.60;2.93;;;;;;;32.67;24.96;97443.44;5022409;28;20524;-71
2022/08/21 10:39:57;;;;;;;5.50;3.10;;;;;;;32.73;25.21;97437.66;5028104;28;20889;-72
2022/08/21 10:42:29;;;;;;;6.93;3.00;;;;;;;32.97;25.35;97430.63;5033624;28;20429;-71
2022/08/21 10:45:08;;;;;;;5.07;2.97;;;;;;;33.11;25.53;97436.91;5039529;28;20917;-70
2022/08/21 10:47:54;;;;;;;7.93;3.63;;;;;;;33.13;24.97;97434.72;5025034;28;20425;-70
2022/08/21 10:50:19;;;;;;;5.77;2.77;;;;;;;32.77;25.59;97432.47;5042452;28;20433;-70
2022/08/21 10:53:03;;;;;;;6.47;3.17;;;;;;;32.90;25.51;97425.56;5029983;28;20918;-70
2022/08/21 10:55:55;;;;;;;6.20;3.13;;;;;;;33.11;25.23;97426.06;5034087;28;20529;-72
2022/08/21 10:58:33;;;;;;;5.50;2.80;;;;;;;32.97;24.40;97417.03;5033189;28;20830;-70
2022/08/21 11:01:07;;;;;;;10.73;3.20;;;;;;;33.16;25.50;97419.75;5037157;28;20466;-71
2022/08/21 11:03:37;;;;;;;7.07;2.93;;;;;;;33.62;25.08;97420.94;5025193;28;20453;-71
2022/08/21 11:06:11;;;;;;;7.50;3.20;;;;;;;33.89;24.03;97424.84;5042040;28;21002;-71
2022/08/21 11:08:40;;;;;;;4.23;2.77;;;;;;;33.87;23.88;97416.16;5023073;28;20521;-70
2022/08/21 11:11:12;;;;;;;5.90;3.00;;;;;;;33.78;23.54;97413.31;5032876;28;20924;-70
2022/08/21 11:13:51;;;;;;;4.97;3.00;;;;;;;34.00;23.77;97412.69;5016215;28;20957;-71
2022/08/21 11:16:54;;;;;;;6.13;3.63;;;;;;;34.25;23.62;97413.28;5040366;28;20426;-71
2022/08/21 11:19:24;;;;;;;6.57;3.00;;;;;;;34.17;23.71;97409.38;5041722;28;20421;-70
2022/08/21 11:22:15;;;;;;;4.90;2.87;;;;;;;34.34;24.00;97410.69;5040429;28;20430;-70
2022/08/21 11:24:57;;;;;;;5.40;2.63;;;;;;;34.36;23.70;97408.44;5024236;28;20465;-71
2022/08/21 11:27:26;;;;;;;5.73;2.90;;;;;;;34.02;23.91;97413.19;5031741;28;20820;-71
2022/08/21 11:29:56;;;;;;;5.57;3.10;;;;;;;33.49;24.05;97403.50;5038934;28;20942;-71
2022/08/21 11:32:48;;;;;;;6.97;3.23;;;;;;;33.02;25.08;97406.09;5042266;28;20513;-70
2022/08/21 11:35:53;;;;;;;7.20;3.70;;;;;;;33.18;25.23;97398.53;5029527;28;20430;-71
2022/08/21 11:38:54;;;;;;;5.40;3.20;;;;;;;32.72;25.48;97400.78;5012316;28;20907;-69
2022/08/21 11:41:24;;;;;;;7.13;4.03;;;;;;;32.24;25.43;97398.94;5033556;28;20480;-71
2022/08/21 11:44:26;;;;;;;6.70;3.40;;;;;;;31.97;26.04;97405.75;5039326;28;20924;-72
2022/08/21 11:47:03;;;;;;;7.23;3.57;;;;;;;31.55;26.77;97394.50;5027549;28;20418;-71